Aviation Digital Data Service (ADDS)

Output produced by METARs form (1511 UTC 19 January 2019)
found at http://www.aviationweather.gov/metar/data/
 
METAR text: DNCA 191100Z 28003KT 7000 BKN011 30/25 Q1014
Conditions at: DNCA (CALABAR , NG) observed 1100 UTC 19 January 2019
Temperature: 30.0°C (86°F)
Dewpoint: 25.0°C (77°F) [RH = 75%]
Pressure (altimeter): 29.94 inches Hg (1014.0 mb)
Winds: from the W (280 degrees) at 3 MPH (3 knots; 1.5 m/s)
Visibility: 4 miles ( 7 km)
Ceiling: 1100 feet AGL
Clouds: broken clouds at 1100 feet AGL
Weather: no significant weather observed at this time

METAR text: DNCA 191000Z 30030KT 7000 BKN010 29/25 Q1015
Conditions at: DNCA (CALABAR , NG) observed 1000 UTC 19 January 2019
Temperature: 29.0°C (84°F)
Dewpoint: 25.0°C (77°F) [RH = 79%]
Pressure (altimeter): 29.97 inches Hg (1015.0 mb)
Winds: from the WNW (300 degrees) at 34 MPH (30 knots; 15.4 m/s)
Visibility: 4 miles ( 7 km)
Ceiling: 1000 feet AGL
Clouds: broken clouds at 1000 feet AGL
Weather: no significant weather observed at this time

METAR text: DNCA 181000Z 30003KT 6000 BKN011 FEW020CB 29/26 Q1014
Conditions at: DNCA (CALABAR , NG) observed 1000 UTC 18 January 2019
Temperature: 29.0°C (84°F)
Dewpoint: 26.0°C (79°F) [RH = 84%]
Pressure (altimeter): 29.94 inches Hg (1014.0 mb)
Winds: from the WNW (300 degrees) at 3 MPH (3 knots; 1.5 m/s)
Visibility: 4 miles ( 6 km)
Ceiling: 1100 feet AGL
Clouds: broken clouds at 1100 feet AGL
few clouds at 2000 feet AGL
Weather: no significant weather observed at this time

METAR text: DNCA 180800Z 00000KT 4000 BR BKN010 26/25 Q1014
Conditions at: DNCA (CALABAR , NG) observed 0800 UTC 18 January 2019
Temperature: 26.0°C (79°F)
Dewpoint: 25.0°C (77°F) [RH = 94%]
Pressure (altimeter): 29.94 inches Hg (1014.0 mb)
Winds: calm
Visibility: 2.49 miles (4.01 km)
Ceiling: 1000 feet AGL
Clouds: broken clouds at 1000 feet AGL
Weather: BR  (mist)

Forecast for: DNCA (CALABAR , NG)
Text: TAF DNCA 190930Z 1912/2018 24010KT 7000 BKN012 FEW020CB
Forecast period: 1200 to 2000 UTC 19 January 2019
Forecast type: FROM: standard forecast or significant change
Winds: from the WSW (240 degrees) at 12 MPH (10 knots; 5.1 m/s)
Visibility: 4 miles (7 km)
Ceiling: 1200 feet AGL
Clouds: broken clouds at 1200 feet AGL
few clouds at 2000 feet AGL
Weather: no significant weather forecast for this period
Text: TEMPO 1915/1919 TS
Forecast period: 1500 to 1900 UTC 19 January 2019
Forecast type: TEMPORARY: The following changes expected for less than half the time period
Visibility: missing
Ceiling: unknown
Clouds: missing
Weather: TS  (thunderstorm)
Text: BECMG 1920/1922 00000KT SCT008
Forecast period: 2000 UTC 19 January 2019 to 1800 UTC 20 January 2019
Forecast type: BECOMING: Conditions expected to become as follows by 2200 UTC 19 January 2019
Winds: calm
Visibility: 4 miles (7 km)
Ceiling: at least 12,000 feet AGL
Clouds: scattered clouds at 800 feet AGL
Weather: no significant weather forecast for this period
Text: TEMPO 2003/2007 3000 BR
Forecast period: 0300 to 0700 UTC 20 January 2019
Forecast type: TEMPORARY: The following changes expected for less than half the time period
Visibility: 1.86 miles (2.99 km)
Ceiling: unknown
Clouds: missing
Weather: BR  (mist)